createdAt,value
2022-09-13T00:01:37.360Z,2.30
2022-09-13T00:04:06.440Z,3.13
2022-09-13T00:06:37.276Z,2.55
2022-09-13T00:09:06.363Z,2.55
2022-09-13T00:11:35.369Z,2.25
2022-09-13T00:14:04.607Z,1.80
2022-09-13T00:16:33.722Z,2.00
2022-09-13T00:19:02.771Z,2.90
2022-09-13T00:21:32.354Z,1.92
2022-09-13T00:24:02.681Z,2.42
2022-09-13T00:26:31.966Z,1.70
2022-09-13T00:29:01.110Z,2.13
2022-09-13T00:31:30.524Z,2.30
2022-09-13T00:34:00.633Z,2.10
2022-09-13T00:36:30.198Z,1.80
2022-09-13T00:38:59.215Z,2.70
2022-09-13T00:41:30.144Z,2.00
2022-09-13T00:44:00.228Z,2.60
2022-09-13T00:46:31.910Z,2.50
2022-09-13T00:49:04.127Z,2.35
2022-09-13T00:51:33.815Z,2.30
2022-09-13T00:54:04.252Z,2.55
2022-09-13T00:56:37.033Z,3.13
2022-09-13T00:59:09.763Z,2.17
2022-09-13T01:01:42.052Z,2.00
2022-09-13T01:04:12.872Z,2.50
2022-09-13T01:06:43.698Z,3.10
2022-09-13T01:09:13.861Z,2.20
2022-09-13T01:11:49.123Z,2.65
2022-09-13T01:14:19.760Z,2.33
2022-09-13T01:16:49.263Z,2.90
2022-09-13T01:19:18.724Z,3.35
2022-09-13T01:22:06.104Z,2.67
2022-09-13T01:24:59.614Z,2.67
2022-09-13T01:27:43.581Z,2.00
2022-09-13T01:30:19.444Z,2.55
2022-09-13T01:32:59.902Z,2.35
2022-09-13T01:35:35.994Z,2.22
2022-09-13T01:38:10.739Z,2.38
2022-09-13T01:40:47.486Z,2.60
2022-09-13T01:43:22.767Z,2.35
2022-09-13T01:45:57.027Z,2.10
2022-09-13T01:48:30.899Z,2.63
2022-09-13T01:51:02.870Z,2.55
2022-09-13T01:56:05.647Z,2.53
2022-09-13T01:58:39.354Z,2.70
2022-09-13T02:01:13.615Z,2.17
2022-09-13T02:03:45.497Z,2.55
2022-09-13T02:08:45.270Z,1.90
2022-09-13T02:11:17.192Z,2.35
2022-09-13T02:13:49.833Z,2.67
2022-09-13T02:16:23.150Z,1.95
2022-09-13T02:18:55.037Z,2.08
2022-09-13T02:21:28.096Z,1.90
2022-09-13T02:23:58.621Z,2.00
2022-09-13T02:26:29.975Z,2.42
2022-09-13T02:29:01.686Z,2.00
2022-09-13T02:31:36.901Z,2.53
2022-09-13T02:34:08.618Z,1.75
2022-09-13T02:36:41.671Z,1.95
2022-09-13T02:39:14.239Z,2.00
2022-09-13T02:41:48.208Z,2.35
2022-09-13T02:44:20.486Z,2.22
2022-09-13T02:47:00.790Z,1.98
2022-09-13T02:49:32.486Z,2.33
2022-09-13T02:52:06.715Z,2.55
2022-09-13T02:54:39.286Z,3.00
2022-09-13T02:57:10.239Z,2.60
2022-09-13T02:59:39.341Z,2.95
2022-09-13T03:02:11.664Z,3.13
2022-09-13T03:04:41.109Z,2.60
2022-09-13T03:07:12.641Z,2.90
2022-09-13T03:09:44.445Z,4.25
2022-09-13T03:12:20.559Z,2.63
2022-09-13T03:14:52.527Z,2.35
2022-09-13T03:17:42.795Z,4.05
2022-09-13T03:20:14.163Z,3.88
2022-09-13T03:22:50.031Z,4.07
2022-09-13T03:25:23.289Z,5.07
2022-09-13T03:27:56.997Z,6.28
2022-09-13T03:30:26.130Z,6.35
2022-09-13T03:33:00.523Z,7.43
2022-09-13T03:35:31.659Z,6.90
2022-09-13T03:38:03.432Z,7.13
2022-09-13T03:40:37.314Z,7.57
2022-09-13T03:43:08.971Z,7.05
2022-09-13T03:45:40.327Z,6.97
2022-09-13T03:48:12.470Z,6.97
2022-09-13T03:50:42.033Z,7.68
2022-09-13T03:53:13.185Z,7.57
2022-09-13T03:55:43.106Z,6.83
2022-09-13T03:58:13.431Z,7.03
2022-09-13T04:00:42.550Z,7.60
2022-09-13T04:03:13.281Z,6.53
2022-09-13T04:05:42.732Z,6.90
2022-09-13T04:08:12.359Z,8.15
2022-09-13T04:10:41.799Z,7.20
2022-09-13T04:13:10.805Z,7.57
2022-09-13T04:15:48.061Z,7.88
2022-09-13T04:18:18.577Z,7.93
2022-09-13T04:20:55.089Z,6.97
2022-09-13T04:30:51.194Z,5.78
2022-09-13T04:33:22.167Z,6.80
2022-09-13T04:35:55.636Z,6.47
2022-09-13T04:38:24.882Z,5.93
2022-09-13T04:40:54.634Z,5.45
2022-09-13T04:43:23.865Z,5.18
2022-09-13T04:45:53.070Z,5.38
2022-09-13T04:48:23.384Z,4.88
2022-09-13T04:50:52.363Z,4.95
2022-09-13T04:53:21.248Z,4.78
2022-09-13T04:55:50.161Z,4.93
2022-09-13T04:58:19.079Z,4.53
2022-09-13T05:00:49.022Z,5.35
2022-09-13T05:03:18.066Z,5.13
2022-09-13T05:05:48.293Z,6.10
2022-09-13T05:08:17.313Z,5.07
2022-09-13T05:10:48.529Z,5.68
2022-09-13T05:13:17.436Z,6.37
2022-09-13T05:15:46.427Z,5.30
2022-09-13T05:18:15.397Z,5.65
2022-09-13T05:20:44.522Z,5.53
2022-09-13T05:23:14.857Z,5.90
2022-09-13T05:25:43.905Z,5.53
2022-09-13T05:28:13.177Z,4.82
2022-09-13T05:30:46.361Z,5.45
2022-09-13T05:33:15.464Z,5.85
2022-09-13T05:35:44.476Z,5.93
2022-09-13T05:38:14.895Z,5.65
2022-09-13T05:40:43.907Z,5.68
2022-09-13T05:43:13.144Z,5.63
2022-09-13T05:45:42.128Z,5.97
2022-09-13T05:48:11.393Z,5.85
2022-09-13T05:53:31.553Z,6.38
2022-09-13T05:56:02.760Z,5.97
2022-09-13T05:58:31.848Z,5.73
2022-09-13T06:01:00.758Z,5.80
2022-09-13T06:03:29.785Z,6.13
2022-09-13T06:05:58.985Z,5.90
2022-09-13T06:08:28.880Z,5.65
2022-09-13T06:11:00.128Z,5.82
2022-09-13T06:13:29.530Z,6.27
2022-09-13T06:15:59.210Z,5.95
2022-09-13T06:18:28.552Z,5.43
2022-09-13T06:21:00.614Z,5.70
2022-09-13T06:23:30.298Z,6.40
2022-09-13T06:26:05.017Z,5.75
2022-09-13T06:28:37.651Z,5.70
2022-09-13T06:31:08.664Z,5.20
2022-09-13T06:33:40.181Z,5.93
2022-09-13T06:36:10.141Z,5.07
2022-09-13T06:38:40.728Z,5.55
2022-09-13T06:41:12.694Z,4.88
2022-09-13T06:43:42.104Z,5.30
2022-09-13T06:46:18.589Z,4.95
2022-09-13T06:48:49.824Z,4.97
2022-09-13T06:51:20.269Z,4.13
2022-09-13T06:53:50.182Z,4.97
2022-09-13T06:56:21.616Z,5.20
2022-09-13T06:58:52.133Z,5.03
2022-09-13T07:01:22.634Z,5.60
2022-09-13T07:03:52.575Z,4.78
2022-09-13T07:06:22.873Z,5.07
2022-09-13T07:08:54.848Z,6.32
2022-09-13T07:11:26.823Z,6.72
2022-09-13T07:13:57.460Z,6.65
2022-09-13T07:16:27.187Z,5.97
2022-09-13T07:18:57.285Z,6.38
2022-09-13T07:21:26.431Z,6.30
2022-09-13T07:23:56.391Z,5.97
2022-09-13T07:26:27.495Z,6.32
2022-09-13T07:28:58.731Z,6.85
2022-09-13T07:31:28.982Z,5.67
2022-09-13T07:33:58.907Z,5.40
2022-09-13T07:36:28.717Z,5.10
2022-09-13T07:38:59.937Z,4.75
2022-09-13T07:41:33.088Z,5.28
2022-09-13T07:44:02.893Z,4.07
2022-09-13T07:46:33.569Z,4.00
2022-09-13T07:49:03.238Z,3.47
2022-09-13T07:51:33.218Z,3.60
2022-09-13T07:54:04.582Z,3.08
2022-09-13T07:56:35.881Z,3.42
2022-09-13T07:59:07.915Z,3.33
2022-09-13T08:01:38.455Z,3.80
2022-09-13T08:04:09.138Z,3.63
2022-09-13T08:06:41.997Z,3.35
2022-09-13T08:09:12.026Z,3.25
2022-09-13T08:11:43.777Z,4.75
2022-09-13T08:14:15.838Z,3.75
2022-09-13T08:19:14.678Z,3.35
2022-09-13T08:21:47.136Z,3.35
2022-09-13T08:24:17.149Z,3.47
2022-09-13T08:26:49.614Z,3.25
2022-09-13T08:29:18.778Z,3.50
2022-09-13T08:31:47.957Z,4.65
2022-09-13T08:34:21.335Z,3.83
2022-09-13T08:36:51.224Z,3.60
2022-09-13T08:39:22.867Z,3.25
2022-09-13T08:42:08.200Z,4.00
2022-09-13T08:44:50.497Z,4.45
2022-09-13T08:47:31.873Z,4.72
2022-09-13T08:50:03.381Z,5.67
2022-09-13T08:55:04.243Z,5.80
2022-09-13T08:57:38.284Z,6.53
2022-09-13T09:00:17.843Z,6.45
2022-09-13T09:02:58.710Z,6.13
2022-09-13T09:05:29.830Z,6.40
2022-09-13T09:08:01.084Z,6.57
2022-09-13T09:10:32.985Z,6.93
2022-09-13T09:13:05.144Z,7.28
2022-09-13T09:18:07.676Z,6.70
2022-09-13T09:20:39.740Z,6.75
2022-09-13T09:23:10.304Z,7.97
2022-09-13T09:25:39.704Z,6.68
2022-09-13T09:28:14.238Z,7.00
2022-09-13T09:30:48.259Z,6.47
2022-09-13T09:33:35.840Z,6.60
2022-09-13T09:36:08.707Z,5.65
2022-09-13T09:38:41.466Z,6.68
2022-09-13T09:41:14.878Z,5.25
2022-09-13T09:43:46.884Z,6.78
2022-09-13T09:46:18.109Z,6.35
2022-09-13T09:48:50.610Z,5.80
2022-09-13T09:51:23.316Z,6.10
2022-09-13T09:53:55.646Z,6.38
2022-09-13T09:56:26.142Z,5.63
2022-09-13T09:58:55.938Z,6.07
2022-09-13T10:01:26.873Z,6.35
2022-09-13T10:04:04.856Z,7.35
2022-09-13T10:06:35.534Z,6.63
2022-09-13T10:09:07.143Z,6.70
2022-09-13T10:11:47.217Z,6.97
2022-09-13T10:14:29.696Z,6.47
2022-09-13T10:17:17.121Z,6.40
2022-09-13T10:19:58.473Z,6.65
2022-09-13T10:22:29.329Z,5.87
2022-09-13T10:25:15.486Z,6.18
2022-09-13T10:27:49.880Z,6.28
2022-09-13T10:30:34.180Z,6.97
2022-09-13T10:33:03.906Z,7.72
2022-09-13T10:35:33.507Z,9.20
2022-09-13T10:38:03.969Z,7.85
2022-09-13T10:40:38.604Z,7.55
2022-09-13T10:43:15.575Z,8.77
2022-09-13T10:45:44.684Z,8.05
2022-09-13T10:48:15.143Z,8.55
2022-09-13T10:51:01.614Z,8.15
2022-09-13T10:53:37.036Z,8.50
2022-09-13T10:56:06.720Z,8.68
2022-09-13T10:58:35.791Z,8.70
2022-09-13T11:01:18.467Z,8.07
2022-09-13T11:04:11.317Z,9.20
2022-09-13T11:06:44.552Z,9.63
2022-09-13T11:09:16.710Z,9.35
2022-09-13T11:11:52.169Z,9.27
2022-09-13T11:14:37.566Z,10.20
2022-09-13T11:17:09.488Z,10.48
2022-09-13T11:19:46.308Z,10.95
2022-09-13T11:22:24.679Z,10.35
2022-09-13T11:25:02.535Z,9.25
2022-09-13T11:27:35.505Z,9.65
2022-09-13T11:30:13.259Z,9.77
2022-09-13T11:32:56.056Z,9.93
2022-09-13T11:35:39.434Z,8.43
2022-09-13T11:38:17.967Z,10.23
2022-09-13T11:40:53.888Z,9.30
2022-09-13T11:43:34.250Z,8.85
2022-09-13T11:46:10.472Z,8.70
2022-09-13T11:48:48.748Z,8.55
2022-09-13T11:51:20.962Z,8.18
2022-09-13T11:54:07.916Z,8.20
2022-09-13T11:56:40.774Z,8.25
2022-09-13T11:59:18.917Z,8.07
2022-09-13T12:01:51.296Z,7.10
2022-09-13T12:04:25.576Z,7.35
2022-09-13T12:06:56.724Z,7.05
2022-09-13T12:09:29.559Z,6.35
2022-09-13T12:12:05.058Z,6.65
2022-09-13T12:14:40.735Z,7.38
2022-09-13T12:17:14.472Z,8.45
2022-09-13T12:19:45.966Z,8.15
2022-09-13T12:22:15.546Z,7.35
2022-09-13T12:24:49.316Z,8.82
2022-09-13T12:27:25.375Z,7.40
2022-09-13T12:29:56.178Z,6.30
2022-09-13T12:32:25.471Z,7.22
2022-09-13T12:34:58.989Z,6.63
2022-09-13T12:37:49.425Z,5.13
2022-09-13T12:40:27.831Z,5.15
2022-09-13T12:43:11.401Z,6.03
2022-09-13T12:45:50.806Z,5.93
2022-09-13T12:48:25.804Z,6.50
2022-09-13T12:51:05.543Z,7.00
2022-09-13T12:54:07.764Z,7.03
2022-09-13T12:56:54.842Z,6.20
2022-09-13T12:59:35.901Z,4.88
2022-09-13T13:02:06.379Z,4.88
2022-09-13T13:04:37.900Z,4.57
2022-09-13T13:07:08.260Z,4.43
2022-09-13T13:09:41.143Z,4.32
2022-09-13T13:12:11.249Z,4.65
2022-09-13T13:14:53.690Z,4.40
2022-09-13T13:17:39.377Z,4.57
2022-09-13T13:20:27.975Z,4.60
2022-09-13T13:23:06.054Z,4.93
2022-09-13T13:25:39.250Z,5.15
2022-09-13T13:28:23.417Z,4.18
2022-09-13T13:30:56.302Z,3.53
2022-09-13T13:33:31.885Z,3.13
2022-09-13T13:36:21.864Z,3.83
2022-09-13T13:38:51.240Z,3.85
2022-09-13T13:41:45.682Z,3.28
2022-09-13T13:44:49.331Z,3.58
2022-09-13T13:47:37.264Z,3.15
2022-09-13T13:50:15.600Z,4.70
2022-09-13T13:52:55.337Z,2.25
2022-09-13T13:55:49.359Z,3.22
2022-09-13T13:58:39.984Z,2.63
2022-09-13T14:01:16.025Z,2.50
2022-09-13T14:03:52.822Z,2.80
2022-09-13T14:06:30.786Z,2.17
2022-09-13T14:09:04.715Z,2.47
2022-09-13T14:11:42.205Z,2.88
2022-09-13T14:14:18.277Z,2.78
2022-09-13T14:16:53.997Z,2.70
2022-09-13T14:19:24.948Z,2.40
2022-09-13T14:22:08.674Z,2.75
2022-09-13T14:24:39.233Z,2.20
2022-09-13T14:27:09.631Z,2.55
2022-09-13T14:29:38.959Z,1.17
2022-09-13T14:32:11.507Z,1.50
2022-09-13T14:34:40.857Z,1.80
2022-09-13T14:37:19.844Z,2.05
2022-09-13T14:39:56.091Z,1.73
2022-09-13T14:42:25.214Z,1.63
2022-09-13T14:44:54.561Z,1.75
2022-09-13T14:47:30.107Z,1.80
2022-09-13T14:50:01.244Z,1.58
2022-09-13T14:52:33.909Z,2.20
2022-09-13T14:55:04.698Z,2.30
2022-09-13T14:57:34.981Z,1.65
2022-09-13T15:00:09.122Z,1.60
2022-09-13T15:02:39.789Z,1.08
2022-09-13T15:05:14.205Z,0.80
2022-09-13T15:07:44.975Z,0.93
2022-09-13T15:10:22.798Z,1.00
2022-09-13T15:12:53.699Z,2.00
2022-09-13T15:15:27.821Z,1.40
2022-09-13T15:17:57.888Z,1.40
2022-09-13T15:20:28.167Z,1.45
2022-09-13T15:22:58.947Z,2.20
2022-09-13T15:25:29.487Z,1.23
2022-09-13T15:27:59.987Z,1.40
2022-09-13T15:30:30.715Z,1.35
2022-09-13T15:33:07.378Z,0.90
2022-09-13T15:35:38.284Z,1.23
2022-09-13T15:38:19.515Z,1.10
2022-09-13T15:40:49.953Z,1.95
2022-09-13T15:43:18.840Z,1.77
2022-09-13T15:45:47.767Z,1.38
2022-09-13T15:48:22.187Z,1.83
2022-09-13T15:51:04.179Z,1.52
2022-09-13T15:53:34.899Z,1.90
2022-09-13T15:56:04.879Z,1.25
2022-09-13T15:58:35.916Z,1.77
2022-09-13T16:01:05.555Z,1.92
2022-09-13T16:03:34.691Z,1.77
2022-09-13T16:06:04.870Z,1.90
2022-09-13T16:08:35.196Z,1.55
2022-09-13T16:11:04.551Z,1.50
2022-09-13T16:13:33.836Z,1.13
2022-09-13T16:16:05.489Z,1.33
2022-09-13T16:18:35.827Z,1.33
2022-09-13T16:21:04.785Z,1.67
2022-09-13T16:23:35.226Z,2.00
2022-09-13T16:26:06.395Z,1.20
2022-09-13T16:28:35.391Z,2.20
2022-09-13T16:31:04.542Z,1.85
2022-09-13T16:33:33.619Z,1.85
2022-09-13T16:36:02.705Z,2.70
2022-09-13T16:38:33.547Z,2.88
2022-09-13T16:41:06.255Z,1.30
2022-09-13T16:43:35.754Z,2.53
2022-09-13T16:46:08.094Z,1.48
2022-09-13T16:48:37.555Z,1.42
2022-09-13T16:51:07.366Z,1.33
2022-09-13T16:53:37.146Z,2.03
2022-09-13T16:56:08.205Z,1.30
2022-09-13T16:58:37.991Z,1.70
2022-09-13T17:01:06.979Z,2.22
2022-09-13T17:03:36.830Z,1.85
2022-09-13T17:06:06.784Z,2.78
2022-09-13T17:08:36.719Z,3.38
2022-09-13T17:11:08.470Z,1.35
2022-09-13T17:13:38.284Z,2.33
2022-09-13T17:16:08.233Z,1.80
2022-09-13T17:18:37.620Z,1.45
2022-09-13T17:21:06.613Z,1.55
2022-09-13T17:23:35.536Z,3.65
2022-09-13T17:26:04.540Z,4.93
2022-09-13T17:28:35.501Z,7.35
2022-09-13T17:31:04.863Z,9.82
2022-09-13T17:33:36.836Z,8.60
2022-09-13T17:36:09.309Z,8.50
2022-09-13T17:38:38.789Z,7.75
2022-09-13T17:41:10.610Z,4.85
2022-09-13T17:43:41.751Z,4.55
2022-09-13T17:46:12.909Z,4.03
2022-09-13T17:48:42.321Z,2.20
2022-09-13T17:51:12.630Z,2.15
2022-09-13T17:53:42.378Z,1.60
2022-09-13T17:56:11.744Z,2.25
2022-09-13T17:58:42.086Z,1.80
2022-09-13T18:01:11.667Z,2.08
2022-09-13T18:03:40.664Z,2.05
2022-09-13T18:06:10.627Z,1.90
2022-09-13T18:08:40.538Z,1.80
2022-09-13T18:11:13.724Z,2.03
2022-09-13T18:13:44.959Z,1.75
2022-09-13T18:16:20.012Z,1.40
2022-09-13T18:18:51.101Z,1.50
2022-09-13T18:21:20.657Z,1.80
2022-09-13T18:23:50.441Z,2.42
2022-09-13T18:26:20.336Z,1.20
2022-09-13T18:28:55.890Z,1.58
2022-09-13T18:31:25.681Z,2.03
2022-09-13T18:33:58.065Z,1.77
2022-09-13T18:36:27.687Z,2.00
2022-09-13T18:38:57.706Z,1.90
2022-09-13T18:41:27.401Z,1.58
2022-09-13T18:43:59.527Z,3.17
2022-09-13T18:46:30.407Z,2.25
2022-09-13T18:48:59.950Z,2.72
2022-09-13T18:51:29.666Z,2.80
2022-09-13T18:53:59.639Z,2.20
2022-09-13T18:56:29.433Z,2.05
2022-09-13T18:59:00.906Z,2.08
2022-09-13T19:01:31.402Z,2.30
2022-09-13T19:04:01.256Z,2.63
2022-09-13T19:06:31.098Z,3.17
2022-09-13T19:09:00.867Z,3.70
2022-09-13T19:11:46.506Z,2.95
2022-09-13T19:14:18.148Z,2.72
2022-09-13T19:16:47.055Z,3.92
2022-09-13T19:19:16.453Z,2.60
2022-09-13T19:21:45.555Z,3.20
2022-09-13T19:24:18.076Z,2.92
2022-09-13T19:26:48.171Z,2.90
2022-09-13T19:29:19.924Z,2.63
2022-09-13T19:31:50.936Z,2.08
2022-09-13T19:34:26.074Z,1.67
2022-09-13T19:36:59.100Z,1.90
2022-09-13T19:39:31.184Z,1.98
2022-09-13T19:42:01.185Z,2.65
2022-09-13T19:44:31.560Z,2.95
2022-09-13T19:49:50.548Z,3.38
2022-09-13T19:52:19.572Z,3.67
2022-09-13T19:54:48.431Z,3.85
2022-09-13T19:57:17.349Z,3.47
2022-09-13T19:59:47.569Z,4.97
2022-09-13T20:02:16.599Z,4.93
2022-09-13T20:04:47.732Z,4.40
2022-09-13T20:07:16.848Z,4.68
2022-09-13T20:09:47.124Z,4.45
2022-09-13T20:12:16.293Z,6.00
2022-09-13T20:14:45.230Z,5.93
2022-09-13T20:17:15.569Z,5.53
2022-09-13T20:19:49.261Z,3.97
2022-09-13T20:22:18.890Z,4.38
2022-09-13T20:24:47.855Z,3.85
2022-09-13T20:27:17.025Z,4.68
2022-09-13T20:29:45.874Z,4.13
2022-09-13T20:32:16.456Z,3.78
2022-09-13T20:34:47.976Z,2.90
2022-09-13T20:37:17.293Z,2.15
2022-09-13T20:39:47.119Z,2.10
2022-09-13T20:42:17.880Z,2.08
2022-09-13T20:44:47.170Z,1.40
2022-09-13T20:47:17.522Z,1.50
2022-09-13T20:49:46.521Z,1.40
2022-09-13T20:52:15.867Z,1.70
2022-09-13T20:54:45.070Z,1.50
2022-09-13T20:57:14.154Z,1.60
2022-09-13T20:59:44.235Z,2.20
2022-09-13T21:02:13.185Z,1.65
2022-09-13T21:04:43.910Z,1.70
2022-09-13T21:07:30.909Z,1.80
2022-09-13T21:10:00.590Z,2.10
2022-09-13T21:12:31.835Z,2.78
2022-09-13T21:15:01.018Z,3.83
2022-09-13T21:17:30.226Z,3.08
2022-09-13T21:20:00.797Z,2.97
2022-09-13T21:22:30.384Z,3.00
2022-09-13T21:24:59.911Z,3.53
2022-09-13T21:27:29.416Z,3.47
2022-09-13T21:29:59.132Z,3.70
2022-09-13T21:32:28.058Z,3.33
2022-09-13T21:34:57.054Z,4.00
2022-09-13T21:37:27.487Z,4.13
2022-09-13T21:39:56.726Z,4.85
2022-09-13T21:42:25.774Z,4.65
2022-09-13T21:44:55.040Z,4.38
2022-09-13T21:47:24.198Z,3.78
2022-09-13T21:49:53.428Z,3.60
2022-09-13T21:52:22.563Z,4.22
2022-09-13T21:54:53.228Z,3.88
2022-09-13T21:57:22.757Z,3.97
2022-09-13T21:59:51.810Z,3.92
2022-09-13T22:02:21.026Z,3.85
2022-09-13T22:04:50.191Z,4.82
2022-09-13T22:07:19.118Z,3.60
2022-09-13T22:09:48.315Z,3.25
2022-09-13T22:12:18.705Z,3.22
2022-09-13T22:14:48.587Z,3.67
2022-09-13T22:17:17.869Z,3.33
2022-09-13T22:19:46.922Z,3.30
2022-09-13T22:22:15.853Z,2.65
2022-09-13T22:24:46.122Z,2.85
2022-09-13T22:27:15.063Z,3.13
2022-09-13T22:29:45.670Z,3.38
2022-09-13T22:32:14.823Z,3.88
2022-09-13T22:34:44.099Z,5.18
2022-09-13T22:37:15.914Z,3.80
2022-09-13T22:39:44.992Z,5.68
2022-09-13T22:42:17.266Z,7.47
2022-09-13T22:47:16.855Z,5.72
2022-09-13T22:49:46.178Z,6.32
2022-09-13T22:52:15.398Z,5.55
2022-09-13T22:54:45.957Z,5.65
2022-09-13T22:57:17.547Z,5.78
2022-09-13T22:59:46.699Z,6.38
2022-09-13T23:02:17.014Z,6.65
2022-09-13T23:04:45.983Z,5.40
2022-09-13T23:07:15.144Z,5.20
2022-09-13T23:09:44.238Z,4.53
2022-09-13T23:12:13.121Z,4.97
2022-09-13T23:14:42.212Z,4.47
2022-09-13T23:17:13.818Z,4.15
2022-09-13T23:19:44.158Z,3.53
2022-09-13T23:22:13.095Z,4.18
2022-09-13T23:24:42.049Z,3.45
2022-09-13T23:27:10.957Z,3.47
2022-09-13T23:29:39.877Z,4.78
2022-09-13T23:32:09.075Z,4.85
2022-09-13T23:34:38.019Z,5.38
2022-09-13T23:37:08.397Z,5.90
2022-09-13T23:39:37.710Z,6.15
2022-09-13T23:42:06.976Z,5.57
2022-09-13T23:44:35.846Z,6.65
2022-09-13T23:47:04.758Z,6.03
2022-09-13T23:49:33.846Z,7.20
2022-09-13T23:52:02.762Z,6.82
2022-09-13T23:54:33.157Z,6.63
2022-09-13T23:57:02.106Z,6.15
2022-09-13T23:59:31.064Z,6.13
